Accueil
METAR-TAF:

METAR-TAF

Aéroports :

Aéroport d'Innsbruck

Innsbruck, Autriche

latitude: 47-16N, longitude: 011-21E, altitude: 581 m

Observation

Le bulletin a été fait il y a 1 heure et 26 minutes, à 12:50 UTC
Vent 6 kt de est, variant entre nord et sud/sud-est
Température 24°C
Humidité 34%
Pression 1017 hPa
Visibilité 10 km ou plus
Quelques nuages à une hauteur de 7000 ft

METAR: LOWI 011250Z 09006KT 010V160 9999 FEW070 24/07 Q1017 NOSIG

Heure: 16:16 (14:16 UTC)

Prévision

Le bulletin a été fait il y a 3 heures et 1 minutes, à 11:15 UTC
Prévision valable du 01 à 12 UTC au 02 à 12 UTC
Vent 10 kt de est
Visibilité 10 km ou plus
Quelques nuages à une hauteur de 7000 ft
Evoluant progressivement
du 01 à 17 UTC au 01 à 19 UTC
Vent 3 kt de ouest
Evoluant progressivement
du 02 à 10 UTC au 02 à 12 UTC
Vent 10 kt de est

TAF: LOWI 011115Z 0112/0212 08010KT 9999 FEW070 TX24/0114Z TN09/0204Z BECMG 0117/0119 27003KT BECMG 0210/0212 08010KT

Observations et prévisions météorologiques de plus de 4000 aéroports (messages METAR et TAF).

Les stations disponibles sont représentées par des disques jaunes et rouges sur la carte.

Passer la souris dessus pour voir le nom de la station.

Cliquer dessus pour voir les observations et prévisions météorologiques.

Pour changer de carte: cliquez sur les boutons verts avec une croix noire pour zoomer, sur le bouton vert avec un tiret pour effectuer un zoom arrière, ou sur les flèches vertes pour les cartes adjacentes.


METAR-TAF: